Time;durP1;ratioP1;P1;durP2;ratioP2;P2;SDS_P1;SDS_P2;PMS_P1;PMS_P2;Temp;Humidity;BMP_temperature;BMP_pressure;BME280_temperature;BME280_humidity;BME280_pressure;Samples;Min_cycle;Max_cycle;Signal;HPM_P1;HPM_P2
2022/06/14 00:01:42;;;;;;;5.85;4.80;;;;;;;;;;6098177;23;20058;-83
2022/06/14 00:04:09;;;;;;;5.03;4.47;;;;;;;;;;6097852;23;19998;-85
2022/06/14 00:06:35;;;;;;;8.23;5.15;;;;;;;;;;6098112;23;20022;-84
2022/06/14 00:09:01;;;;;;;5.95;4.85;;;;;;;;;;6097774;23;20066;-83
2022/06/14 00:11:28;;;;;;;6.70;5.22;;;;;;;;;;6097964;23;20080;-83
2022/06/14 00:13:54;;;;;;;7.88;5.65;;;;;;;;;;6097547;23;20018;-84
2022/06/14 00:16:22;;;;;;;6.25;5.40;;;;;;;;;;6098215;23;20002;-83
2022/06/14 00:18:48;;;;;;;5.78;5.10;;;;;;;;;;6097910;23;20013;-84
2022/06/14 00:21:14;;;;;;;6.22;5.60;;;;;;;;;;6097907;23;20005;-84
2022/06/14 00:23:41;;;;;;;5.78;5.18;;;;;;;;;;6097982;23;20026;-84
2022/06/14 00:26:08;;;;;;;7.47;5.70;;;;;;;;;;6097492;23;20331;-83
2022/06/14 00:28:34;;;;;;;7.15;5.80;;;;;;;;;;6098152;23;20073;-83
2022/06/14 00:31:02;;;;;;;8.50;5.32;;;;;;;;;;6097522;23;20025;-84
2022/06/14 00:33:28;;;;;;;14.13;11.63;;;;;;;;;;6097788;23;20098;-85
2022/06/14 00:35:58;;;;;;;9.38;7.38;;;;;;;;;;6097742;23;20106;-84
2022/06/14 00:38:25;;;;;;;8.23;7.45;;;;;;;;;;6097807;23;20002;-84
2022/06/14 00:40:54;;;;;;;6.18;5.20;;;;;;;;;;6097785;23;20021;-84
2022/06/14 00:43:21;;;;;;;5.80;4.93;;;;;;;;;;6097884;23;20002;-83
2022/06/14 00:45:48;;;;;;;5.43;4.93;;;;;;;;;;6097703;23;20053;-83
2022/06/14 00:48:14;;;;;;;5.18;4.75;;;;;;;;;;6097649;23;20006;-83
2022/06/14 00:51:03;;;;;;;7.55;5.00;;;;;;;;;;6072035;23;20509;-84
2022/06/14 00:53:33;;;;;;;6.22;5.10;;;;;;;;;;6079842;23;20010;-83
2022/06/14 00:56:11;;;;;;;4.70;3.97;;;;;;;;;;6097639;23;20132;-85
2022/06/14 00:58:40;;;;;;;4.82;4.43;;;;;;;;;;6097412;23;20461;-84
2022/06/14 01:01:08;;;;;;;6.63;5.63;;;;;;;;;;6097592;23;20003;-84
2022/06/14 01:03:39;;;;;;;8.02;5.60;;;;;;;;;;6097397;23;20007;-84
2022/06/14 01:06:10;;;;;;;6.13;5.20;;;;;;;;;;6097635;23;20446;-83
2022/06/14 01:08:38;;;;;;;6.22;5.63;;;;;;;;;;6097299;23;20006;-83
2022/06/14 01:11:05;;;;;;;6.38;5.03;;;;;;;;;;6097538;23;20009;-84
2022/06/14 01:13:31;;;;;;;6.68;5.95;;;;;;;;;;6097116;23;20015;-83
2022/06/14 01:15:57;;;;;;;7.00;6.13;;;;;;;;;;6097518;23;20009;-84
2022/06/14 01:18:24;;;;;;;6.18;5.35;;;;;;;;;;6097256;23;20037;-83
2022/06/14 01:20:50;;;;;;;5.93;5.40;;;;;;;;;;6097408;23;20033;-83
2022/06/14 01:23:17;;;;;;;5.93;5.35;;;;;;;;;;6071791;23;20003;-84
2022/06/14 01:25:47;;;;;;;6.75;6.15;;;;;;;;;;6097213;23;20026;-84
2022/06/14 01:28:16;;;;;;;7.32;6.63;;;;;;;;;;6097358;23;20481;-83
2022/06/14 01:33:36;;;;;;;7.45;5.53;;;;;;;;;;6097404;23;20013;-84
2022/06/14 01:36:07;;;;;;;7.68;6.28;;;;;;;;;;6097042;23;20060;-83
2022/06/14 01:38:34;;;;;;;6.88;6.18;;;;;;;;;;6097336;23;19999;-83
2022/06/14 01:41:18;;;;;;;7.35;6.45;;;;;;;;;;6097234;23;19998;-83
2022/06/14 01:43:52;;;;;;;10.50;6.28;;;;;;;;;;6096951;23;20007;-84
2022/06/14 01:46:18;;;;;;;6.57;5.55;;;;;;;;;;6097180;23;20478;-83
2022/06/14 01:51:50;;;;;;;7.55;6.70;;;;;;;;;;6071369;23;20060;-83
2022/06/14 01:51:54;;;;;;;6.32;5.70;;;;;;;;;;6096893;23;20014;-85
2022/06/14 01:54:40;;;;;;;6.80;6.05;;;;;;;;;;6096905;23;20003;-84
2022/06/14 01:57:09;;;;;;;6.07;5.57;;;;;;;;;;6072894;23;20085;-84
2022/06/14 01:59:35;;;;;;;5.53;5.03;;;;;;;;;;6097095;23;20324;-84
2022/06/14 02:02:05;;;;;;;7.13;5.28;;;;;;;;;;6096491;23;20014;-84
2022/06/14 02:04:42;;;;;;;5.07;4.60;;;;;;;;;;6096983;23;20009;-84
2022/06/14 02:07:27;;;;;;;6.70;5.55;;;;;;;;;;6096946;23;20002;-83
2022/06/14 02:09:59;;;;;;;7.53;6.55;;;;;;;;;;6096852;23;20007;-83
2022/06/14 02:12:44;;;;;;;6.53;5.80;;;;;;;;;;6096661;23;20078;-83
2022/06/14 02:15:13;;;;;;;6.93;5.93;;;;;;;;;;6039161;23;20074;-85
2022/06/14 02:17:50;;;;;;;6.97;5.75;;;;;;;;;;6039393;23;20066;-84
2022/06/14 02:20:20;;;;;;;8.20;6.70;;;;;;;;;;6037777;23;20455;-83
2022/06/14 02:22:48;;;;;;;7.22;5.80;;;;;;;;;;6037869;23;20364;-84
2022/06/14 02:25:16;;;;;;;7.25;6.55;;;;;;;;;;6039355;23;20082;-84
2022/06/14 02:28:01;;;;;;;7.10;6.40;;;;;;;;;;6039447;23;19999;-85
2022/06/14 02:30:53;;;;;;;6.55;5.00;;;;;;;;;;6039803;23;20008;-83
2022/06/14 02:33:38;;;;;;;6.55;5.95;;;;;;;;;;6033995;23;20008;-83
2022/06/14 02:36:10;;;;;;;6.47;5.18;;;;;;;;;;6039048;23;20082;-84
2022/06/14 02:38:42;;;;;;;5.70;5.20;;;;;;;;;;6039275;23;20007;-83
2022/06/14 02:41:19;;;;;;;7.43;5.63;;;;;;;;;;6038948;23;20007;-84
2022/06/14 02:43:48;;;;;;;7.28;4.80;;;;;;;;;;6039118;23;20008;-83
2022/06/14 02:46:16;;;;;;;5.72;5.22;;;;;;;;;;6037687;23;20018;-83
2022/06/14 02:49:01;;;;;;;7.00;5.35;;;;;;;;;;6039063;23;20003;-84
2022/06/14 02:51:33;;;;;;;7.70;6.47;;;;;;;;;;6039028;23;20007;-83
2022/06/14 02:54:05;;;;;;;6.35;5.25;;;;;;;;;;6039115;23;20003;-83
2022/06/14 02:56:35;;;;;;;6.35;5.72;;;;;;;;;;6037396;23;20007;-84
2022/06/14 02:59:06;;;;;;;6.38;5.40;;;;;;;;;;6039090;23;20003;-84
2022/06/14 03:01:52;;;;;;;8.00;5.53;;;;;;;;;;6038809;23;20008;-83
2022/06/14 03:04:28;;;;;;;6.93;5.53;;;;;;;;;;6038794;23;20030;-84
2022/06/14 03:07:00;;;;;;;6.70;5.93;;;;;;;;;;6038707;23;20007;-84
2022/06/14 03:09:32;;;;;;;6.18;5.57;;;;;;;;;;6037774;23;20380;-83
2022/06/14 03:11:58;;;;;;;6.45;5.80;;;;;;;;;;6038720;23;20336;-83
2022/06/14 03:14:43;;;;;;;6.97;5.78;;;;;;;;;;6081290;23;20018;-83
2022/06/14 03:17:09;;;;;;;;;;;;;;;;;;6096677;23;20017;-84
2022/06/14 03:19:43;;;;;;;7.78;7.07;;;;;;;;;;6096065;23;20229;-84
2022/06/14 03:22:28;;;;;;;9.45;8.07;;;;;;;;;;6071163;23;20457;-83
2022/06/14 03:25:02;;;;;;;11.23;7.35;;;;;;;;;;6096335;23;20002;-83
2022/06/14 03:27:43;;;;;;;11.45;6.97;;;;;;;;;;6096218;23;19998;-83
2022/06/14 03:30:28;;;;;;;8.27;6.60;;;;;;;;;;6096553;23;20419;-84
2022/06/14 03:33:03;;;;;;;8.35;6.43;;;;;;;;;;6096122;23;20010;-83
2022/06/14 03:35:41;;;;;;;7.32;6.15;;;;;;;;;;6070833;23;20383;-83
2022/06/14 03:38:09;;;;;;;17.52;15.70;;;;;;;;;;6070769;23;20003;-83
2022/06/14 03:40:35;;;;;;;7.50;6.65;;;;;;;;;;6096082;23;20058;-83
2022/06/14 03:43:03;;;;;;;7.05;6.13;;;;;;;;;;6096267;23;20003;-84
2022/06/14 03:45:34;;;;;;;7.03;6.25;;;;;;;;;;6096044;23;20006;-83
2022/06/14 03:48:00;;;;;;;6.65;6.05;;;;;;;;;;6096374;23;20387;-84
2022/06/14 03:50:30;;;;;;;9.02;8.18;;;;;;;;;;6095576;23;20061;-84
2022/06/14 03:53:13;;;;;;;8.32;7.55;;;;;;;;;;6095996;23;20005;-83
2022/06/14 03:55:45;;;;;;;12.65;9.50;;;;;;;;;;6096077;23;20078;-83
2022/06/14 03:58:17;;;;;;;14.95;12.57;;;;;;;;;;6095940;23;20003;-83
2022/06/14 04:00:52;;;;;;;6.95;6.22;;;;;;;;;;6096277;23;20494;-81
2022/06/14 04:03:24;;;;;;;11.20;9.88;;;;;;;;;;6095869;23;20003;-80
2022/06/14 04:05:50;;;;;;;10.70;8.90;;;;;;;;;;6070281;23;20458;-80
2022/06/14 04:08:17;;;;;;;7.43;6.60;;;;;;;;;;6096165;23;20014;-81
2022/06/14 04:10:53;;;;;;;12.05;10.80;;;;;;;;;;6070408;23;20002;-81
2022/06/14 04:13:30;;;;;;;23.52;20.98;;;;;;;;;;6095771;23;20379;-81
2022/06/14 04:16:00;;;;;;;33.28;28.70;;;;;;;;;;6095712;23;20016;-80
2022/06/14 04:21:47;;;;;;;8.98;7.00;;;;;;;;;;6035754;23;20324;-80
2022/06/14 04:24:23;;;;;;;7.00;6.03;;;;;;;;;;6035657;23;20004;-80
2022/06/14 04:26:54;;;;;;;6.00;5.40;;;;;;;;;;6037120;23;20443;-81
2022/06/14 04:29:23;;;;;;;6.88;5.90;;;;;;;;;;6037584;23;20007;-80
2022/06/14 04:31:52;;;;;;;7.07;5.97;;;;;;;;;;6037806;23;20015;-80
2022/06/14 04:34:23;;;;;;;7.57;6.70;;;;;;;;;;6037684;23;20424;-80
2022/06/14 04:36:56;;;;;;;15.63;13.18;;;;;;;;;;6037411;23;20005;-81
2022/06/14 04:39:28;;;;;;;8.68;7.57;;;;;;;;;;6037680;23;20046;-81
2022/06/14 04:42:12;;;;;;;10.02;7.80;;;;;;;;;;6037835;23;20007;-81
2022/06/14 04:44:48;;;;;;;11.13;9.57;;;;;;;;;;6037473;23;20412;-81
2022/06/14 04:47:14;;;;;;;8.50;6.55;;;;;;;;;;6037275;23;20069;-80
2022/06/14 04:49:59;;;;;;;6.68;6.07;;;;;;;;;;6013771;23;20436;-80
2022/06/14 04:52:26;;;;;;;6.18;5.57;;;;;;;;;;6052288;23;20442;-80
2022/06/14 04:54:57;;;;;;;6.10;5.50;;;;;;;;;;6097109;23;20050;-80
2022/06/14 04:57:29;;;;;;;6.13;5.53;;;;;;;;;;6097003;23;20009;-80
2022/06/14 04:59:58;;;;;;;8.48;6.88;;;;;;;;;;6096928;23;20066;-80
2022/06/14 05:02:27;;;;;;;7.03;6.32;;;;;;;;;;6097149;23;20007;-80
2022/06/14 05:04:59;;;;;;;6.93;6.32;;;;;;;;;;6096839;23;20073;-80
2022/06/14 05:07:29;;;;;;;6.25;5.63;;;;;;;;;;6096982;23;20003;-81
2022/06/14 05:10:02;;;;;;;7.80;6.90;;;;;;;;;;6071230;23;20018;-80
2022/06/14 05:12:31;;;;;;;9.15;7.45;;;;;;;;;;6096794;23;19998;-80
2022/06/14 05:15:04;;;;;;;8.77;7.18;;;;;;;;;;6097036;23;20454;-81
2022/06/14 05:17:33;;;;;;;7.50;6.78;;;;;;;;;;6096590;23;20014;-80
2022/06/14 05:20:01;;;;;;;8.05;7.25;;;;;;;;;;6096863;23;20009;-80
2022/06/14 05:22:38;;;;;;;8.52;7.07;;;;;;;;;;6096611;23;20069;-80
2022/06/14 05:25:06;;;;;;;9.52;7.05;;;;;;;;;;6094978;23;19998;-80
2022/06/14 05:27:50;;;;;;;10.02;9.02;;;;;;;;;;6095014;23;20002;-80
2022/06/14 05:30:35;;;;;;;9.63;8.07;;;;;;;;;;6096336;23;20017;-82
2022/06/14 05:33:20;;;;;;;6.63;5.93;;;;;;;;;;6095988;23;20029;-85
2022/06/14 05:36:07;;;;;;;21.65;18.90;;;;;;;;;;6091522;23;20327;-85
2022/06/14 05:38:51;;;;;;;13.50;12.05;;;;;;;;;;6070507;23;20630;-82
2022/06/14 05:41:23;;;;;;;10.15;8.82;;;;;;;;;;6094356;23;20010;-86
2022/06/14 05:43:55;;;;;;;8.95;7.55;;;;;;;;;;6094640;23;20006;-85
2022/06/14 05:46:27;;;;;;;8.23;7.43;;;;;;;;;;6068765;23;20457;-85
2022/06/14 05:51:51;;;;;;;10.18;6.80;;;;;;;;;;6095284;23;20011;-83
2022/06/14 05:54:37;;;;;;;8.05;7.25;;;;;;;;;;6094209;23;20003;-83
2022/06/14 05:57:19;;;;;;;8.90;6.05;;;;;;;;;;6095338;23;20003;-85
2022/06/14 05:59:51;;;;;;;7.32;6.15;;;;;;;;;;6065347;23;20006;-88
2022/06/14 06:02:23;;;;;;;6.93;6.22;;;;;;;;;;6070009;23;20010;-87
2022/06/14 06:05:29;;;;;;;6.95;6.20;;;;;;;;;;6094534;23;20125;-83
2022/06/14 06:07:54;;;;;;;;;;;;;;;;;;6094484;23;20010;-83
2022/06/14 06:10:26;;;;;;;7.03;6.38;;;;;;;;;;6094465;23;20349;-84
2022/06/14 06:13:02;;;;;;;9.15;8.30;;;;;;;;;;6094100;23;20009;-85
2022/06/14 06:15:36;;;;;;;7.35;6.65;;;;;;;;;;6094508;23;19999;-78
2022/06/14 06:18:09;;;;;;;7.45;6.40;;;;;;;;;;6095002;23;20002;-84
2022/06/14 06:20:44;;;;;;;7.95;6.55;;;;;;;;;;6069472;23;20007;-85
2022/06/14 06:23:17;;;;;;;8.68;7.97;;;;;;;;;;6094753;23;20089;-82
2022/06/14 06:25:46;;;;;;;13.32;11.73;;;;;;;;;;6094782;23;20081;-81
2022/06/14 06:28:25;;;;;;;8.40;6.82;;;;;;;;;;6094975;23;20364;-82
2022/06/14 06:31:04;;;;;;;7.55;6.47;;;;;;;;;;6094989;23;20010;-84
2022/06/14 06:33:33;;;;;;;6.88;6.28;;;;;;;;;;6095149;23;20070;-82
2022/06/14 06:36:18;;;;;;;6.88;6.22;;;;;;;;;;6094207;23;20009;-84
2022/06/14 06:39:03;;;;;;;7.43;6.30;;;;;;;;;;6068736;23;20010;-83
2022/06/14 06:44:35;;;;;;;6.43;5.93;;;;;;;;;;6094815;23;20042;-82
2022/06/14 06:47:17;;;;;;;6.63;5.82;;;;;;;;;;6094682;23;20030;-81
2022/06/14 06:49:56;;;;;;;7.88;6.85;;;;;;;;;;6094356;23;20002;-82
2022/06/14 06:52:26;;;;;;;10.77;6.60;;;;;;;;;;6095145;23;20089;-81
2022/06/14 06:54:58;;;;;;;7.28;6.57;;;;;;;;;;6045428;23;20374;-84
2022/06/14 06:57:26;;;;;;;6.60;6.05;;;;;;;;;;6095586;23;20006;-80
2022/06/14 06:59:56;;;;;;;60.47;24.08;;;;;;;;;;6094561;23;20074;-86
2022/06/14 07:02:28;;;;;;;80.05;30.90;;;;;;;;;;6069301;23;20033;-82
2022/06/14 07:07:56;;;;;;;27.38;14.68;;;;;;;;;;6094507;23;20021;-81
2022/06/14 07:10:25;;;;;;;17.70;11.13;;;;;;;;;;6093339;23;20105;-84
2022/06/14 07:13:12;;;;;;;8.40;7.47;;;;;;;;;;6094480;23;20007;-85
2022/06/14 07:15:44;;;;;;;13.63;8.57;;;;;;;;;;6094788;23;20003;-84
2022/06/14 07:18:15;;;;;;;13.82;9.15;;;;;;;;;;6069033;23;20447;-81
2022/06/14 07:21:02;;;;;;;11.60;8.07;;;;;;;;;;6095001;23;20010;-84
2022/06/14 07:23:45;;;;;;;9.02;8.10;;;;;;;;;;6094835;23;20009;-82
2022/06/14 07:26:22;;;;;;;8.57;7.70;;;;;;;;;;6068252;23;20041;-83
2022/06/14 07:29:07;;;;;;;8.57;7.45;;;;;;;;;;6068360;23;20430;-86
2022/06/14 07:31:38;;;;;;;8.68;7.93;;;;;;;;;;6068742;23;20019;-83
2022/06/14 07:34:05;;;;;;;7.47;6.78;;;;;;;;;;6094891;23;20002;-82
2022/06/14 07:36:41;;;;;;;8.40;6.95;;;;;;;;;;6094891;23;20026;-87
2022/06/14 07:39:16;;;;;;;7.47;6.72;;;;;;;;;;6094276;23;20062;-83
2022/06/14 07:41:55;;;;;;;7.38;6.55;;;;;;;;;;6068309;23;20068;-83
2022/06/14 07:44:46;;;;;;;6.75;6.07;;;;;;;;;;6068791;23;20516;-82
2022/06/14 07:47:18;;;;;;;11.68;8.30;;;;;;;;;;6068940;23;20383;-82
2022/06/14 07:49:57;;;;;;;12.05;8.70;;;;;;;;;;6093924;23;20006;-82
2022/06/14 07:52:45;;;;;;;18.10;10.02;;;;;;;;;;6094970;23;20021;-82
2022/06/14 07:55:15;;;;;;;8.07;7.38;;;;;;;;;;6093971;23;20018;-83
2022/06/14 07:57:44;;;;;;;6.85;6.25;;;;;;;;;;6094639;23;20360;-80
2022/06/14 08:03:33;;;;;;;7.50;6.75;;;;;;;;;;6096735;23;20029;-78
2022/06/14 08:06:08;;;;;;;17.88;9.63;;;;;;;;;;6095884;23;20057;-82
2022/06/14 08:08:37;;;;;;;7.00;5.65;;;;;;;;;;6096515;23;20007;-85
2022/06/14 08:11:21;;;;;;;6.85;6.15;;;;;;;;;;6069548;23;20034;-81
2022/06/14 08:13:54;;;;;;;6.85;6.35;;;;;;;;;;6096571;23;20453;-80
2022/06/14 08:16:24;;;;;;;6.30;5.70;;;;;;;;;;6096030;23;20009;-83
2022/06/14 08:19:09;;;;;;;6.53;5.93;;;;;;;;;;6096630;23;20689;-82
2022/06/14 08:21:42;;;;;;;6.53;5.93;;;;;;;;;;6096562;23;20026;-82
2022/06/14 08:24:19;;;;;;;7.20;6.60;;;;;;;;;;6096636;23;20137;-83
2022/06/14 08:26:48;;;;;;;6.82;6.25;;;;;;;;;;6069624;23;20006;-80
2022/06/14 08:29:18;;;;;;;6.22;5.72;;;;;;;;;;6096494;23;20007;-81
2022/06/14 08:31:51;;;;;;;6.88;6.20;;;;;;;;;;6095744;23;20018;-82
2022/06/14 08:34:17;;;;;;;7.18;5.70;;;;;;;;;;6070363;23;20382;-81
2022/06/14 08:36:47;;;;;;;5.90;5.30;;;;;;;;;;6094762;23;20431;-82
2022/06/14 08:39:17;;;;;;;9.70;5.70;;;;;;;;;;6096019;23;20014;-80
2022/06/14 08:41:52;;;;;;;6.93;6.22;;;;;;;;;;6095390;23;20006;-82
2022/06/14 08:44:22;;;;;;;6.35;5.82;;;;;;;;;;6095377;23;20013;-85
2022/06/14 08:47:07;;;;;;;6.25;5.30;;;;;;;;;;6096094;23;20010;-82
2022/06/14 08:49:42;;;;;;;5.90;5.32;;;;;;;;;;6095834;23;20078;-82
2022/06/14 08:52:20;;;;;;;8.18;5.22;;;;;;;;;;6095469;23;20330;-82
2022/06/14 08:55:06;;;;;;;6.63;5.65;;;;;;;;;;6096201;23;20081;-80
2022/06/14 08:57:50;;;;;;;5.35;4.85;;;;;;;;;;6095604;23;20030;-80
2022/06/14 09:00:36;;;;;;;6.68;5.88;;;;;;;;;;6095740;23;20074;-81
2022/06/14 09:03:24;;;;;;;9.85;5.15;;;;;;;;;;6070334;23;20089;-81
2022/06/14 09:05:56;;;;;;;5.30;4.80;;;;;;;;;;6070858;23;20010;-84
2022/06/14 09:08:31;;;;;;;6.68;4.78;;;;;;;;;;6070426;23;20465;-80
2022/06/14 09:11:16;;;;;;;4.88;4.38;;;;;;;;;;6095312;23;20010;-84
2022/06/14 09:14:03;;;;;;;8.35;4.68;;;;;;;;;;6094320;23;20093;-84
2022/06/14 09:16:47;;;;;;;5.90;4.88;;;;;;;;;;6095352;23;20010;-80
2022/06/14 09:19:32;;;;;;;6.25;4.57;;;;;;;;;;6070320;23;20014;-80
2022/06/14 09:22:17;;;;;;;5.35;4.75;;;;;;;;;;6096041;23;20002;-81
2022/06/14 09:25:01;;;;;;;4.93;4.53;;;;;;;;;;6095838;23;20009;-80
2022/06/14 09:27:28;;;;;;;5.45;4.95;;;;;;;;;;6093695;23;19999;-77
2022/06/14 09:30:07;;;;;;;5.80;4.40;;;;;;;;;;6095675;23;20426;-82
2022/06/14 09:35:51;;;;;;;5.07;4.20;;;;;;;;;;6095170;23;20085;-83
2022/06/14 09:38:23;;;;;;;5.72;5.13;;;;;;;;;;6095109;23;20002;-82
2022/06/14 09:40:49;;;;;;;5.85;4.50;;;;;;;;;;6095683;23;20045;-83
2022/06/14 09:43:19;;;;;;;4.95;4.10;;;;;;;;;;6094892;23;20022;-82
2022/06/14 09:46:07;;;;;;;5.47;4.95;;;;;;;;;;6070032;23;20033;-79
2022/06/14 09:48:33;;;;;;;6.05;5.40;;;;;;;;;;6069808;23;20044;-79
2022/06/14 09:51:33;;;;;;;5.22;4.32;;;;;;;;;;6096136;23;20003;-82
2022/06/14 09:54:19;;;;;;;12.10;6.70;;;;;;;;;;6095566;23;19999;-79
2022/06/14 09:56:52;;;;;;;4.28;3.88;;;;;;;;;;6094708;23;20034;-79
2022/06/14 09:59:26;;;;;;;15.73;7.68;;;;;;;;;;6095329;23;20002;-80
2022/06/14 10:02:13;;;;;;;8.27;5.25;;;;;;;;;;6095640;23;20489;-82
2022/06/14 10:05:00;;;;;;;4.05;3.75;;;;;;;;;;6071391;23;20010;-75
2022/06/14 10:07:35;;;;;;;7.18;4.30;;;;;;;;;;6094984;23;20433;-81
2022/06/14 10:10:01;;;;;;;5.63;3.80;;;;;;;;;;6095279;23;20010;-82
2022/06/14 10:12:44;;;;;;;15.60;13.63;;;;;;;;;;6069492;23;20013;-81
2022/06/14 10:15:29;;;;;;;3.55;3.00;;;;;;;;;;6035778;23;20463;-84
2022/06/14 10:18:14;;;;;;;4.13;3.70;;;;;;;;;;6037372;23;20056;-81
2022/06/14 10:20:46;;;;;;;6.13;3.10;;;;;;;;;;6037224;23;20010;-80
2022/06/14 10:23:31;;;;;;;5.53;4.10;;;;;;;;;;6037257;23;20003;-79
2022/06/14 10:29:11;;;;;;;3.85;3.45;;;;;;;;;;6037281;23;20037;-80
2022/06/14 10:31:38;;;;;;;4.03;3.20;;;;;;;;;;6037186;23;20019;-84
2022/06/14 10:34:12;;;;;;;4.18;2.97;;;;;;;;;;6037415;23;20049;-78
2022/06/14 10:36:57;;;;;;;3.45;2.72;;;;;;;;;;6035964;23;20413;-78
2022/06/14 10:39:42;;;;;;;7.30;6.68;;;;;;;;;;6036628;23;20056;-79
2022/06/14 10:42:08;;;;;;;136.77;124.97;;;;;;;;;;6037930;23;20011;-77
2022/06/14 10:44:42;;;;;;;12.73;11.32;;;;;;;;;;6036251;23;20057;-77
2022/06/14 10:47:31;;;;;;;3.10;2.70;;;;;;;;;;6037450;23;20054;-81
2022/06/14 10:50:03;;;;;;;2.60;2.40;;;;;;;;;;6032861;23;20022;-79
2022/06/14 10:52:48;;;;;;;6.13;2.88;;;;;;;;;;6036122;23;20007;-80
2022/06/14 10:55:26;;;;;;;7.15;3.75;;;;;;;;;;6037931;23;20091;-82
2022/06/14 10:57:58;;;;;;;4.45;3.55;;;;;;;;;;6037954;23;20035;-83
2022/06/14 11:00:43;;;;;;;3.22;2.92;;;;;;;;;;6038304;23;20082;-79
2022/06/14 11:03:12;;;;;;;3.45;2.75;;;;;;;;;;6037802;23;20452;-81
2022/06/14 11:05:38;;;;;;;3.92;2.88;;;;;;;;;;6034451;23;20435;-78
2022/06/14 11:08:23;;;;;;;3.97;2.13;;;;;;;;;;6037043;23;20090;-80
2022/06/14 11:11:24;;;;;;;4.13;2.53;;;;;;;;;;6036251;23;20007;-78
2022/06/14 11:13:56;;;;;;;2.63;2.13;;;;;;;;;;5981706;23;20020;-79
2022/06/14 11:16:39;;;;;;;5.07;2.53;;;;;;;;;;6031884;23;20024;-81
2022/06/14 11:19:35;;;;;;;4.38;2.88;;;;;;;;;;6037264;23;20031;-79
2022/06/14 11:22:01;;;;;;;;;;;;;;;;;;6037159;23;20443;-80
2022/06/14 11:24:46;;;;;;;3.40;2.40;;;;;;;;;;6037115;23;19901;-82
2022/06/14 11:27:12;;;;;;;2.55;2.33;;;;;;;;;;6036445;23;20003;-80
2022/06/14 11:29:41;;;;;;;4.38;3.05;;;;;;;;;;6036895;23;19999;-80
2022/06/14 11:32:25;;;;;;;7.53;5.03;;;;;;;;;;6037018;23;20369;-81
2022/06/14 11:35:10;;;;;;;5.15;2.83;;;;;;;;;;6036602;23;20373;-82
2022/06/14 11:37:52;;;;;;;5.47;3.05;;;;;;;;;;6035921;23;20007;-81
2022/06/14 11:40:36;;;;;;;4.75;2.30;;;;;;;;;;6037143;23;20003;-78
2022/06/14 11:43:15;;;;;;;4.20;1.80;;;;;;;;;;6036883;23;20017;-83
2022/06/14 11:46:00;;;;;;;5.45;3.33;;;;;;;;;;6038135;23;20003;-79
2022/06/14 11:48:44;;;;;;;4.90;2.30;;;;;;;;;;6038140;23;20007;-83
2022/06/14 11:51:28;;;;;;;4.18;2.30;;;;;;;;;;6038331;23;20065;-80
2022/06/14 11:54:13;;;;;;;2.88;2.58;;;;;;;;;;6037001;23;20424;-79
2022/06/14 11:56:50;;;;;;;3.85;2.42;;;;;;;;;;6038492;23;20004;-85
2022/06/14 11:59:34;;;;;;;5.05;3.53;;;;;;;;;;6038365;23;20083;-81
2022/06/14 12:02:19;;;;;;;3.08;2.30;;;;;;;;;;6038288;23;20454;-81
2022/06/14 12:04:51;;;;;;;;;;;;;;;;;;6038472;23;20007;-80
2022/06/14 12:07:26;;;;;;;2.38;1.63;;;;;;;;;;6036545;23;20337;-79
2022/06/14 12:09:55;;;;;;;2.63;1.90;;;;;;;;;;6038673;23;20014;-81
2022/06/14 12:12:23;;;;;;;3.00;1.65;;;;;;;;;;6037993;23;20006;-81
2022/06/14 12:15:08;;;;;;;6.93;5.32;;;;;;;;;;6090583;23;20136;-77
2022/06/14 12:17:53;;;;;;;15.77;14.40;;;;;;;;;;6095655;23;20010;-84
2022/06/14 12:20:20;;;;;;;8.45;2.67;;;;;;;;;;6095813;23;20003;-79
2022/06/14 12:22:46;;;;;;;2.42;1.33;;;;;;;;;;6095744;23;19998;-79
2022/06/14 12:28:25;;;;;;;3.10;1.75;;;;;;;;;;6095688;23;20065;-81
2022/06/14 12:30:52;;;;;;;4.57;2.00;;;;;;;;;;6095252;23;20013;-81
2022/06/14 12:33:29;;;;;;;4.50;1.75;;;;;;;;;;6069470;23;19999;-83
2022/06/14 12:36:18;;;;;;;3.92;1.60;;;;;;;;;;6069504;23;20010;-80
2022/06/14 12:38:45;;;;;;;5.20;2.22;;;;;;;;;;6077568;23;20415;-80
2022/06/14 12:41:11;;;;;;;2.95;1.52;;;;;;;;;;6094974;23;20017;-80
2022/06/14 12:43:56;;;;;;;2.95;1.40;;;;;;;;;;6095533;23;20003;-82
2022/06/14 12:46:25;;;;;;;2.80;1.35;;;;;;;;;;6069391;23;20394;-80
2022/06/14 12:48:54;;;;;;;3.20;2.97;;;;;;;;;;6096974;23;20006;-83
2022/06/14 12:51:30;;;;;;;3.03;1.70;;;;;;;;;;6071353;23;20086;-82
2022/06/14 12:54:06;;;;;;;2.78;1.40;;;;;;;;;;6097210;23;20002;-85
2022/06/14 12:56:32;;;;;;;2.92;1.45;;;;;;;;;;6072046;23;20346;-81
2022/06/14 12:59:10;;;;;;;2.40;1.70;;;;;;;;;;6097027;23;20002;-80
2022/06/14 13:01:55;;;;;;;2.97;1.50;;;;;;;;;;6097163;23;20010;-83
2022/06/14 13:04:44;;;;;;;1.73;1.58;;;;;;;;;;6096817;23;20085;-81
2022/06/14 13:07:29;;;;;;;5.50;3.95;;;;;;;;;;6078635;23;20042;-78
2022/06/14 13:09:55;;;;;;;3.25;1.33;;;;;;;;;;6071778;23;20084;-82
2022/06/14 13:12:24;;;;;;;6.05;2.75;;;;;;;;;;6096781;23;20002;-83
2022/06/14 13:14:58;;;;;;;4.72;2.25;;;;;;;;;;6066453;23;20030;-78
2022/06/14 13:17:24;;;;;;;4.82;2.08;;;;;;;;;;6068266;23;20015;-78
2022/06/14 13:19:56;;;;;;;2.13;1.63;;;;;;;;;;6068003;23;19999;-82
2022/06/14 13:22:22;;;;;;;4.70;1.42;;;;;;;;;;6067912;23;20297;-81
2022/06/14 13:25:07;;;;;;;3.35;1.50;;;;;;;;;;6068070;23;20007;-81
2022/06/14 13:27:42;;;;;;;3.03;1.52;;;;;;;;;;6067717;23;20074;-82
2022/06/14 13:30:33;;;;;;;2.85;1.55;;;;;;;;;;6066708;23;20003;-81
2022/06/14 13:33:05;;;;;;;3.90;1.50;;;;;;;;;;6068385;23;20463;-81
2022/06/14 13:35:31;;;;;;;2.50;1.35;;;;;;;;;;6068249;23;19998;-83
2022/06/14 13:38:13;;;;;;;1.80;1.20;;;;;;;;;;6066694;23;20409;-82
2022/06/14 13:40:48;;;;;;;2.10;1.40;;;;;;;;;;6068339;23;20011;-80
2022/06/14 13:43:27;;;;;;;2.92;1.58;;;;;;;;;;6068442;23;20011;-82
2022/06/14 13:46:12;;;;;;;1.98;1.13;;;;;;;;;;6067936;23;20087;-83
2022/06/14 13:48:57;;;;;;;2.33;1.58;;;;;;;;;;6068187;23;20018;-82
2022/06/14 13:51:41;;;;;;;2.97;1.92;;;;;;;;;;6068169;23;20089;-79
2022/06/14 13:54:12;;;;;;;2.42;1.23;;;;;;;;;;6066522;23;20376;-84
2022/06/14 13:56:41;;;;;;;3.10;1.42;;;;;;;;;;6068195;23;20003;-82
2022/06/14 13:59:17;;;;;;;1.65;1.35;;;;;;;;;;6067907;23;20075;-83
2022/06/14 14:01:49;;;;;;;2.83;1.45;;;;;;;;;;6067513;23;20392;-82
2022/06/14 14:04:29;;;;;;;4.20;1.70;;;;;;;;;;6066622;23;20081;-82
2022/06/14 14:07:04;;;;;;;3.92;1.30;;;;;;;;;;6067854;23;20427;-80
2022/06/14 14:09:44;;;;;;;3.15;1.23;;;;;;;;;;6067851;23;20011;-83
2022/06/14 14:12:29;;;;;;;3.53;1.50;;;;;;;;;;6067737;23;20058;-81
2022/06/14 14:15:18;;;;;;;2.30;1.13;;;;;;;;;;6095050;23;20010;-83
2022/06/14 14:18:03;;;;;;;2.75;1.42;;;;;;;;;;6096752;23;20033;-82
2022/06/14 14:20:29;;;;;;;;;;;;;;;;;;6071686;23;20007;-78
2022/06/14 14:23:14;;;;;;;5.25;1.13;;;;;;;;;;6096526;23;20207;-82
2022/06/14 14:25:58;;;;;;;4.90;2.17;;;;;;;;;;6096646;23;20005;-83
2022/06/14 14:28:32;;;;;;;7.25;1.60;;;;;;;;;;6093996;23;20009;-82
2022/06/14 14:31:04;;;;;;;2.88;1.65;;;;;;;;;;6096567;23;20022;-81
2022/06/14 14:33:36;;;;;;;3.78;1.73;;;;;;;;;;6096574;23;20490;-81
2022/06/14 14:36:05;;;;;;;3.03;1.40;;;;;;;;;;6096691;23;20442;-82
2022/06/14 14:38:34;;;;;;;3.92;1.38;;;;;;;;;;6096707;23;20003;-79
2022/06/14 14:43:55;;;;;;;3.83;1.42;;;;;;;;;;6096170;23;20066;-79
2022/06/14 14:46:26;;;;;;;2.47;1.20;;;;;;;;;;6096861;23;20002;-82
2022/06/14 14:49:20;;;;;;;5.18;1.35;;;;;;;;;;6096439;23;20014;-79
2022/06/14 14:52:07;;;;;;;2.33;1.50;;;;;;;;;;6044150;23;20025;-82
2022/06/14 14:54:51;;;;;;;3.25;1.40;;;;;;;;;;6072588;23;20006;-79
2022/06/14 14:57:36;;;;;;;3.60;1.40;;;;;;;;;;6096440;23;20007;-79
2022/06/14 15:00:05;;;;;;;1.60;1.17;;;;;;;;;;6096533;23;20501;-83
2022/06/14 15:05:34;;;;;;;1.92;1.50;;;;;;;;;;6096260;23;20553;-83
2022/06/14 15:08:17;;;;;;;3.00;1.13;;;;;;;;;;6096196;23;20003;-81
2022/06/14 15:11:02;;;;;;;3.25;1.13;;;;;;;;;;6096112;23;20006;-83
2022/06/14 15:13:32;;;;;;;3.53;1.50;;;;;;;;;;6096068;23;20021;-81
2022/06/14 15:15:59;;;;;;;3.65;1.35;;;;;;;;;;6096655;23;20007;-82
2022/06/14 15:21:31;;;;;;;2.38;1.20;;;;;;;;;;6096199;23;20098;-83
2022/06/14 15:24:02;;;;;;;2.55;1.25;;;;;;;;;;6070621;23;20438;-83
2022/06/14 15:26:29;;;;;;;4.30;1.33;;;;;;;;;;6096022;23;20427;-83
2022/06/14 15:28:59;;;;;;;2.05;1.25;;;;;;;;;;6096346;23;20003;-81
2022/06/14 15:31:26;;;;;;;3.78;1.33;;;;;;;;;;6096048;23;20010;-83
2022/06/14 15:33:56;;;;;;;2.88;1.27;;;;;;;;;;6096194;23;20359;-81
2022/06/14 15:36:41;;;;;;;2.63;1.45;;;;;;;;;;6096129;23;19995;-80
2022/06/14 15:39:07;;;;;;;5.15;4.28;;;;;;;;;;6096303;23;20030;-84
2022/06/14 15:41:34;;;;;;;2.70;1.23;;;;;;;;;;6096122;23;20445;-82
2022/06/14 15:44:12;;;;;;;2.40;1.20;;;;;;;;;;6096286;23;20422;-81
2022/06/14 15:46:48;;;;;;;2.67;1.17;;;;;;;;;;6096268;23;20010;-83
2022/06/14 15:49:16;;;;;;;2.03;1.13;;;;;;;;;;6095905;23;20334;-80
2022/06/14 15:51:44;;;;;;;2.05;1.30;;;;;;;;;;6096164;23;20041;-82
2022/06/14 15:54:28;;;;;;;1.67;0.95;;;;;;;;;;6095879;23;20005;-82
2022/06/14 15:57:01;;;;;;;2.25;1.67;;;;;;;;;;6095944;23;20003;-80
2022/06/14 15:59:42;;;;;;;5.75;1.15;;;;;;;;;;6070698;23;20422;-83
2022/06/14 16:02:27;;;;;;;2.33;1.00;;;;;;;;;;6096140;23;20014;-84
2022/06/14 16:04:56;;;;;;;2.42;1.30;;;;;;;;;;6096040;23;20033;-82
2022/06/14 16:07:40;;;;;;;1.52;0.93;;;;;;;;;;6070450;23;20011;-82